sensor_id;sensor_type;location;lat;lon;timestamp;P1;durP1;ratioP1;P2;durP2;ratioP2
1122;SDS011;548;48.778;9.252;2022-12-29T00:00:07;16.87;;;15.77;;
1122;SDS011;548;48.778;9.252;2022-12-29T00:02:34;16.80;;;15.63;;
1122;SDS011;548;48.778;9.252;2022-12-29T00:05:02;15.90;;;15.10;;
1122;SDS011;548;48.778;9.252;2022-12-29T00:07:30;15.83;;;15.03;;
1122;SDS011;548;48.778;9.252;2022-12-29T00:09:56;17.10;;;16.00;;
1122;SDS011;548;48.778;9.252;2022-12-29T00:12:23;16.70;;;15.70;;
1122;SDS011;548;48.778;9.252;2022-12-29T00:14:50;15.83;;;15.03;;
1122;SDS011;548;48.778;9.252;2022-12-29T00:17:34;15.77;;;14.87;;
1122;SDS011;548;48.778;9.252;2022-12-29T00:20:02;14.80;;;14.10;;
1122;SDS011;548;48.778;9.252;2022-12-29T00:22:47;16.73;;;15.83;;
1122;SDS011;548;48.778;9.252;2022-12-29T00:25:31;15.53;;;14.73;;
1122;SDS011;548;48.778;9.252;2022-12-29T00:28:16;16.83;;;15.70;;
1122;SDS011;548;48.778;9.252;2022-12-29T00:31:00;15.53;;;14.73;;
1122;SDS011;548;48.778;9.252;2022-12-29T00:33:56;16.10;;;15.07;;
1122;SDS011;548;48.778;9.252;2022-12-29T00:36:42;15.40;;;14.60;;
1122;SDS011;548;48.778;9.252;2022-12-29T00:39:10;16.50;;;15.60;;
1122;SDS011;548;48.778;9.252;2022-12-29T00:42:02;15.90;;;15.07;;
1122;SDS011;548;48.778;9.252;2022-12-29T00:44:47;16.20;;;15.20;;
1122;SDS011;548;48.778;9.252;2022-12-29T00:47:14;16.10;;;14.93;;
1122;SDS011;548;48.778;9.252;2022-12-29T00:49:40;15.83;;;14.80;;
1122;SDS011;548;48.778;9.252;2022-12-29T00:52:08;16.60;;;15.47;;
1122;SDS011;548;48.778;9.252;2022-12-29T00:54:36;16.97;;;15.57;;
1122;SDS011;548;48.778;9.252;2022-12-29T00:57:05;17.27;;;15.97;;
1122;SDS011;548;48.778;9.252;2022-12-29T00:59:34;17.13;;;16.07;;
1122;SDS011;548;48.778;9.252;2022-12-29T01:02:01;16.67;;;15.77;;
1122;SDS011;548;48.778;9.252;2022-12-29T01:04:28;16.50;;;15.50;;
1122;SDS011;548;48.778;9.252;2022-12-29T01:06:55;17.63;;;16.63;;
1122;SDS011;548;48.778;9.252;2022-12-29T01:09:23;16.97;;;16.00;;
1122;SDS011;548;48.778;9.252;2022-12-29T01:12:07;18.20;;;17.00;;
1122;SDS011;548;48.778;9.252;2022-12-29T01:14:35;17.10;;;16.03;;
1122;SDS011;548;48.778;9.252;2022-12-29T01:17:02;17.40;;;15.97;;
1122;SDS011;548;48.778;9.252;2022-12-29T01:19:29;17.73;;;16.67;;
1122;SDS011;548;48.778;9.252;2022-12-29T01:21:56;17.20;;;16.10;;
1122;SDS011;548;48.778;9.252;2022-12-29T01:24:25;16.73;;;15.73;;
1122;SDS011;548;48.778;9.252;2022-12-29T01:26:51;17.13;;;16.13;;
1122;SDS011;548;48.778;9.252;2022-12-29T01:29:19;16.53;;;15.43;;
1122;SDS011;548;48.778;9.252;2022-12-29T01:31:46;16.10;;;15.20;;
1122;SDS011;548;48.778;9.252;2022-12-29T01:34:14;16.50;;;15.50;;
1122;SDS011;548;48.778;9.252;2022-12-29T01:36:41;16.47;;;15.37;;
1122;SDS011;548;48.778;9.252;2022-12-29T01:39:07;16.37;;;15.37;;
1122;SDS011;548;48.778;9.252;2022-12-29T01:41:35;15.83;;;14.93;;
1122;SDS011;548;48.778;9.252;2022-12-29T01:44:02;15.70;;;14.80;;
1122;SDS011;548;48.778;9.252;2022-12-29T01:46:30;16.87;;;15.77;;
1122;SDS011;548;48.778;9.252;2022-12-29T01:49:02;15.97;;;15.07;;
1122;SDS011;548;48.778;9.252;2022-12-29T01:51:35;15.63;;;14.73;;
1122;SDS011;548;48.778;9.252;2022-12-29T01:54:04;16.73;;;15.63;;
1122;SDS011;548;48.778;9.252;2022-12-29T01:56:36;18.23;;;16.80;;
1122;SDS011;548;48.778;9.252;2022-12-29T01:59:04;17.33;;;16.13;;
1122;SDS011;548;48.778;9.252;2022-12-29T02:01:34;16.73;;;15.73;;
1122;SDS011;548;48.778;9.252;2022-12-29T02:04:00;17.10;;;16.00;;
1122;SDS011;548;48.778;9.252;2022-12-29T02:06:28;15.93;;;15.03;;
1122;SDS011;548;48.778;9.252;2022-12-29T02:08:59;15.43;;;14.60;;
1122;SDS011;548;48.778;9.252;2022-12-29T02:11:26;15.37;;;14.43;;
1122;SDS011;548;48.778;9.252;2022-12-29T02:13:55;15.70;;;14.40;;
1122;SDS011;548;48.778;9.252;2022-12-29T02:16:35;16.27;;;15.20;;
1122;SDS011;548;48.778;9.252;2022-12-29T02:19:34;14.80;;;14.00;;
1122;SDS011;548;48.778;9.252;2022-12-29T02:22:22;15.67;;;14.60;;
1122;SDS011;548;48.778;9.252;2022-12-29T02:27:58;15.27;;;14.47;;
1122;SDS011;548;48.778;9.252;2022-12-29T02:30:45;16.30;;;15.40;;
1122;SDS011;548;48.778;9.252;2022-12-29T02:33:24;16.37;;;14.93;;
1122;SDS011;548;48.778;9.252;2022-12-29T02:36:05;14.87;;;14.00;;
1122;SDS011;548;48.778;9.252;2022-12-29T02:38:41;15.57;;;14.67;;
1122;SDS011;548;48.778;9.252;2022-12-29T02:41:17;14.87;;;13.80;;
1122;SDS011;548;48.778;9.252;2022-12-29T02:43:48;15.40;;;14.50;;
1122;SDS011;548;48.778;9.252;2022-12-29T02:46:21;14.77;;;14.00;;
1122;SDS011;548;48.778;9.252;2022-12-29T02:48:54;14.07;;;13.27;;
1122;SDS011;548;48.778;9.252;2022-12-29T02:51:29;13.87;;;13.17;;
1122;SDS011;548;48.778;9.252;2022-12-29T02:54:00;14.33;;;13.50;;
1122;SDS011;548;48.778;9.252;2022-12-29T02:56:47;14.10;;;13.20;;
1122;SDS011;548;48.778;9.252;2022-12-29T02:59:14;14.60;;;13.80;;
1122;SDS011;548;48.778;9.252;2022-12-29T03:01:49;14.13;;;13.37;;
1122;SDS011;548;48.778;9.252;2022-12-29T03:04:43;14.30;;;13.57;;
1122;SDS011;548;48.778;9.252;2022-12-29T03:07:36;14.27;;;13.57;;
1122;SDS011;548;48.778;9.252;2022-12-29T03:10:13;14.03;;;13.43;;
1122;SDS011;548;48.778;9.252;2022-12-29T03:12:48;13.97;;;13.27;;
1122;SDS011;548;48.778;9.252;2022-12-29T03:15:37;14.83;;;13.93;;
1122;SDS011;548;48.778;9.252;2022-12-29T03:18:29;14.60;;;13.60;;
1122;SDS011;548;48.778;9.252;2022-12-29T03:21:05;15.10;;;14.30;;
1122;SDS011;548;48.778;9.252;2022-12-29T03:23:36;14.80;;;14.10;;
1122;SDS011;548;48.778;9.252;2022-12-29T03:26:06;14.30;;;13.60;;
1122;SDS011;548;48.778;9.252;2022-12-29T03:28:38;14.90;;;13.27;;
1122;SDS011;548;48.778;9.252;2022-12-29T03:31:09;13.30;;;12.37;;
1122;SDS011;548;48.778;9.252;2022-12-29T03:33:38;13.50;;;12.90;;
1122;SDS011;548;48.778;9.252;2022-12-29T03:36:08;14.10;;;13.23;;
1122;SDS011;548;48.778;9.252;2022-12-29T03:38:40;13.10;;;12.20;;
1122;SDS011;548;48.778;9.252;2022-12-29T03:41:13;13.60;;;13.00;;
1122;SDS011;548;48.778;9.252;2022-12-29T03:43:43;12.87;;;12.37;;
1122;SDS011;548;48.778;9.252;2022-12-29T03:46:09;12.60;;;11.80;;
1122;SDS011;548;48.778;9.252;2022-12-29T03:48:36;12.30;;;11.80;;
1122;SDS011;548;48.778;9.252;2022-12-29T03:51:04;12.40;;;11.70;;
1122;SDS011;548;48.778;9.252;2022-12-29T03:53:31;11.90;;;11.33;;
1122;SDS011;548;48.778;9.252;2022-12-29T03:55:58;11.90;;;11.40;;
1122;SDS011;548;48.778;9.252;2022-12-29T03:58:24;12.20;;;11.60;;
1122;SDS011;548;48.778;9.252;2022-12-29T04:00:51;12.13;;;11.63;;
1122;SDS011;548;48.778;9.252;2022-12-29T04:03:19;11.30;;;10.87;;
1122;SDS011;548;48.778;9.252;2022-12-29T04:05:45;11.20;;;10.80;;
1122;SDS011;548;48.778;9.252;2022-12-29T04:08:13;11.33;;;10.93;;
1122;SDS011;548;48.778;9.252;2022-12-29T04:10:40;12.20;;;11.80;;
1122;SDS011;548;48.778;9.252;2022-12-29T04:13:07;12.50;;;12.00;;
1122;SDS011;548;48.778;9.252;2022-12-29T04:15:33;11.57;;;10.97;;
1122;SDS011;548;48.778;9.252;2022-12-29T04:18:00;12.13;;;11.53;;
1122;SDS011;548;48.778;9.252;2022-12-29T04:20:27;11.93;;;11.43;;
1122;SDS011;548;48.778;9.252;2022-12-29T04:23:11;12.87;;;12.17;;
1122;SDS011;548;48.778;9.252;2022-12-29T04:25:39;12.00;;;11.60;;
1122;SDS011;548;48.778;9.252;2022-12-29T04:28:06;12.60;;;11.90;;
1122;SDS011;548;48.778;9.252;2022-12-29T04:30:33;11.80;;;11.20;;
1122;SDS011;548;48.778;9.252;2022-12-29T04:32:59;11.73;;;11.17;;
1122;SDS011;548;48.778;9.252;2022-12-29T04:35:26;11.77;;;11.23;;
1122;SDS011;548;48.778;9.252;2022-12-29T04:37:53;12.17;;;11.67;;
1122;SDS011;548;48.778;9.252;2022-12-29T04:40:19;11.73;;;11.23;;
1122;SDS011;548;48.778;9.252;2022-12-29T04:42:47;12.73;;;12.23;;
1122;SDS011;548;48.778;9.252;2022-12-29T04:45:14;11.83;;;11.00;;
1122;SDS011;548;48.778;9.252;2022-12-29T04:47:41;12.53;;;12.00;;
1122;SDS011;548;48.778;9.252;2022-12-29T04:50:08;11.30;;;10.90;;
1122;SDS011;548;48.778;9.252;2022-12-29T04:52:35;11.10;;;10.60;;
1122;SDS011;548;48.778;9.252;2022-12-29T04:55:03;12.10;;;11.60;;
1122;SDS011;548;48.778;9.252;2022-12-29T04:57:30;13.07;;;12.57;;
1122;SDS011;548;48.778;9.252;2022-12-29T04:59:58;12.40;;;11.90;;
1122;SDS011;548;48.778;9.252;2022-12-29T05:02:25;12.50;;;11.90;;
1122;SDS011;548;48.778;9.252;2022-12-29T05:04:52;11.87;;;11.43;;
1122;SDS011;548;48.778;9.252;2022-12-29T05:07:18;11.80;;;11.40;;
1122;SDS011;548;48.778;9.252;2022-12-29T05:09:45;12.30;;;11.90;;
1122;SDS011;548;48.778;9.252;2022-12-29T05:12:12;13.00;;;12.47;;
1122;SDS011;548;48.778;9.252;2022-12-29T05:14:39;12.00;;;11.50;;
1122;SDS011;548;48.778;9.252;2022-12-29T05:17:07;12.07;;;11.47;;
1122;SDS011;548;48.778;9.252;2022-12-29T05:19:33;13.30;;;12.40;;
1122;SDS011;548;48.778;9.252;2022-12-29T05:22:00;11.87;;;11.27;;
1122;SDS011;548;48.778;9.252;2022-12-29T05:24:27;12.50;;;11.80;;
1122;SDS011;548;48.778;9.252;2022-12-29T05:26:53;13.40;;;12.70;;
1122;SDS011;548;48.778;9.252;2022-12-29T05:29:20;12.57;;;11.97;;
1122;SDS011;548;48.778;9.252;2022-12-29T05:31:47;11.90;;;11.30;;
1122;SDS011;548;48.778;9.252;2022-12-29T05:34:15;12.87;;;12.30;;
1122;SDS011;548;48.778;9.252;2022-12-29T05:36:42;12.20;;;11.80;;
1122;SDS011;548;48.778;9.252;2022-12-29T05:39:08;12.90;;;12.10;;
1122;SDS011;548;48.778;9.252;2022-12-29T05:41:35;13.00;;;11.93;;
1122;SDS011;548;48.778;9.252;2022-12-29T05:44:02;12.93;;;12.30;;
1122;SDS011;548;48.778;9.252;2022-12-29T05:46:29;12.17;;;11.77;;
1122;SDS011;548;48.778;9.252;2022-12-29T05:48:56;12.47;;;11.97;;
1122;SDS011;548;48.778;9.252;2022-12-29T05:51:24;12.80;;;12.30;;
1122;SDS011;548;48.778;9.252;2022-12-29T05:53:50;12.73;;;12.20;;
1122;SDS011;548;48.778;9.252;2022-12-29T05:56:17;11.80;;;11.40;;
1122;SDS011;548;48.778;9.252;2022-12-29T05:58:44;12.20;;;11.67;;
1122;SDS011;548;48.778;9.252;2022-12-29T06:01:10;13.07;;;11.87;;
1122;SDS011;548;48.778;9.252;2022-12-29T06:03:37;12.20;;;11.70;;
1122;SDS011;548;48.778;9.252;2022-12-29T06:06:04;12.30;;;11.60;;
1122;SDS011;548;48.778;9.252;2022-12-29T06:08:33;12.63;;;12.03;;
1122;SDS011;548;48.778;9.252;2022-12-29T06:11:00;12.53;;;12.03;;
1122;SDS011;548;48.778;9.252;2022-12-29T06:13:26;12.10;;;11.60;;
1122;SDS011;548;48.778;9.252;2022-12-29T06:15:53;13.23;;;12.50;;
1122;SDS011;548;48.778;9.252;2022-12-29T06:18:20;12.03;;;11.63;;
1122;SDS011;548;48.778;9.252;2022-12-29T06:20:47;12.50;;;12.00;;
1122;SDS011;548;48.778;9.252;2022-12-29T06:23:14;12.10;;;11.53;;
1122;SDS011;548;48.778;9.252;2022-12-29T06:25:42;11.87;;;11.47;;
1122;SDS011;548;48.778;9.252;2022-12-29T06:28:09;12.47;;;11.97;;
1122;SDS011;548;48.778;9.252;2022-12-29T06:30:36;12.07;;;11.60;;
1122;SDS011;548;48.778;9.252;2022-12-29T06:33:03;12.23;;;11.83;;
1122;SDS011;548;48.778;9.252;2022-12-29T06:35:30;13.00;;;12.30;;
1122;SDS011;548;48.778;9.252;2022-12-29T06:37:56;13.00;;;12.30;;
1122;SDS011;548;48.778;9.252;2022-12-29T06:40:23;12.50;;;11.80;;
1122;SDS011;548;48.778;9.252;2022-12-29T06:42:51;13.00;;;12.37;;
1122;SDS011;548;48.778;9.252;2022-12-29T06:45:18;12.00;;;11.43;;
1122;SDS011;548;48.778;9.252;2022-12-29T06:47:44;12.23;;;11.73;;
1122;SDS011;548;48.778;9.252;2022-12-29T06:50:11;12.23;;;11.83;;
1122;SDS011;548;48.778;9.252;2022-12-29T06:52:38;11.93;;;11.43;;
1122;SDS011;548;48.778;9.252;2022-12-29T06:55:05;12.60;;;12.10;;
1122;SDS011;548;48.778;9.252;2022-12-29T06:57:32;12.47;;;11.97;;
1122;SDS011;548;48.778;9.252;2022-12-29T07:00:00;13.10;;;12.40;;
1122;SDS011;548;48.778;9.252;2022-12-29T07:02:27;12.63;;;12.03;;
1122;SDS011;548;48.778;9.252;2022-12-29T07:04:54;12.20;;;11.80;;
1122;SDS011;548;48.778;9.252;2022-12-29T07:07:21;12.70;;;12.10;;
1122;SDS011;548;48.778;9.252;2022-12-29T07:09:47;13.00;;;12.50;;
1122;SDS011;548;48.778;9.252;2022-12-29T07:12:14;12.70;;;12.20;;
1122;SDS011;548;48.778;9.252;2022-12-29T07:14:41;12.20;;;11.80;;
1122;SDS011;548;48.778;9.252;2022-12-29T07:17:09;12.47;;;11.97;;
1122;SDS011;548;48.778;9.252;2022-12-29T07:19:36;12.40;;;11.80;;
1122;SDS011;548;48.778;9.252;2022-12-29T07:22:02;11.10;;;10.80;;
1122;SDS011;548;48.778;9.252;2022-12-29T07:24:29;17.63;;;12.53;;
1122;SDS011;548;48.778;9.252;2022-12-29T07:26:56;12.00;;;11.50;;
1122;SDS011;548;48.778;9.252;2022-12-29T07:29:23;11.70;;;11.20;;
1122;SDS011;548;48.778;9.252;2022-12-29T07:31:49;11.97;;;11.57;;
1122;SDS011;548;48.778;9.252;2022-12-29T07:34:17;11.70;;;11.00;;
1122;SDS011;548;48.778;9.252;2022-12-29T07:36:44;12.67;;;11.90;;
1122;SDS011;548;48.778;9.252;2022-12-29T07:39:11;12.60;;;11.90;;
1122;SDS011;548;48.778;9.252;2022-12-29T07:41:37;12.30;;;11.70;;
1122;SDS011;548;48.778;9.252;2022-12-29T07:44:04;12.00;;;11.50;;
1122;SDS011;548;48.778;9.252;2022-12-29T07:46:31;12.10;;;11.60;;
1122;SDS011;548;48.778;9.252;2022-12-29T07:48:58;11.27;;;10.87;;
1122;SDS011;548;48.778;9.252;2022-12-29T07:51:26;11.13;;;10.73;;
1122;SDS011;548;48.778;9.252;2022-12-29T07:53:53;11.60;;;11.00;;
1122;SDS011;548;48.778;9.252;2022-12-29T07:56:19;11.53;;;11.03;;
1122;SDS011;548;48.778;9.252;2022-12-29T07:58:46;10.53;;;9.90;;
1122;SDS011;548;48.778;9.252;2022-12-29T08:01:13;11.00;;;10.60;;
1122;SDS011;548;48.778;9.252;2022-12-29T08:03:40;10.83;;;10.20;;
1122;SDS011;548;48.778;9.252;2022-12-29T08:06:26;11.77;;;11.10;;
1122;SDS011;548;48.778;9.252;2022-12-29T08:08:54;11.47;;;10.77;;
1122;SDS011;548;48.778;9.252;2022-12-29T08:11:21;10.43;;;9.87;;
1122;SDS011;548;48.778;9.252;2022-12-29T08:13:48;11.17;;;10.57;;
1122;SDS011;548;48.778;9.252;2022-12-29T08:16:14;11.10;;;10.60;;
1122;SDS011;548;48.778;9.252;2022-12-29T08:18:41;11.97;;;11.47;;
1122;SDS011;548;48.778;9.252;2022-12-29T08:21:08;11.37;;;10.80;;
1122;SDS011;548;48.778;9.252;2022-12-29T08:23:36;10.77;;;10.30;;
1122;SDS011;548;48.778;9.252;2022-12-29T08:26:04;12.13;;;11.20;;
1122;SDS011;548;48.778;9.252;2022-12-29T08:28:32;11.50;;;10.70;;
1122;SDS011;548;48.778;9.252;2022-12-29T08:30:59;11.30;;;10.70;;
1122;SDS011;548;48.778;9.252;2022-12-29T08:33:28;10.07;;;9.67;;
1122;SDS011;548;48.778;9.252;2022-12-29T08:35:58;11.50;;;11.00;;
1122;SDS011;548;48.778;9.252;2022-12-29T08:38:26;10.80;;;10.30;;
1122;SDS011;548;48.778;9.252;2022-12-29T08:40:54;10.27;;;9.77;;
1122;SDS011;548;48.778;9.252;2022-12-29T08:43:21;10.47;;;10.17;;
1122;SDS011;548;48.778;9.252;2022-12-29T08:45:48;10.70;;;10.20;;
1122;SDS011;548;48.778;9.252;2022-12-29T08:48:15;10.97;;;10.37;;
1122;SDS011;548;48.778;9.252;2022-12-29T08:50:44;10.33;;;9.63;;
1122;SDS011;548;48.778;9.252;2022-12-29T08:53:11;11.00;;;10.50;;
1122;SDS011;548;48.778;9.252;2022-12-29T08:55:38;11.70;;;10.97;;
1122;SDS011;548;48.778;9.252;2022-12-29T08:58:06;11.03;;;10.63;;
1122;SDS011;548;48.778;9.252;2022-12-29T09:00:33;10.27;;;9.80;;
1122;SDS011;548;48.778;9.252;2022-12-29T09:03:00;10.90;;;10.50;;
1122;SDS011;548;48.778;9.252;2022-12-29T09:05:27;10.43;;;10.03;;
1122;SDS011;548;48.778;9.252;2022-12-29T09:07:53;10.43;;;9.97;;
1122;SDS011;548;48.778;9.252;2022-12-29T09:10:20;10.47;;;9.87;;
1122;SDS011;548;48.778;9.252;2022-12-29T09:12:47;10.83;;;10.33;;
1122;SDS011;548;48.778;9.252;2022-12-29T09:15:15;10.40;;;10.00;;
1122;SDS011;548;48.778;9.252;2022-12-29T09:17:42;11.47;;;10.87;;
1122;SDS011;548;48.778;9.252;2022-12-29T09:20:10;11.73;;;11.10;;
1122;SDS011;548;48.778;9.252;2022-12-29T09:22:37;11.33;;;10.93;;
1122;SDS011;548;48.778;9.252;2022-12-29T09:25:04;11.53;;;11.03;;
1122;SDS011;548;48.778;9.252;2022-12-29T09:27:32;10.77;;;10.20;;
1122;SDS011;548;48.778;9.252;2022-12-29T09:29:58;11.20;;;10.80;;
1122;SDS011;548;48.778;9.252;2022-12-29T09:32:26;10.20;;;9.60;;
1122;SDS011;548;48.778;9.252;2022-12-29T09:34:53;10.77;;;10.37;;
1122;SDS011;548;48.778;9.252;2022-12-29T09:37:20;11.30;;;10.80;;
1122;SDS011;548;48.778;9.252;2022-12-29T09:39:46;11.20;;;10.70;;
1122;SDS011;548;48.778;9.252;2022-12-29T09:42:15;10.50;;;10.10;;
1122;SDS011;548;48.778;9.252;2022-12-29T09:44:51;10.93;;;10.43;;
1122;SDS011;548;48.778;9.252;2022-12-29T09:47:27;10.50;;;10.10;;
1122;SDS011;548;48.778;9.252;2022-12-29T09:49:56;9.93;;;9.53;;
1122;SDS011;548;48.778;9.252;2022-12-29T09:52:29;10.60;;;10.20;;
1122;SDS011;548;48.778;9.252;2022-12-29T09:54:58;11.50;;;11.00;;
1122;SDS011;548;48.778;9.252;2022-12-29T09:57:29;11.30;;;10.63;;
1122;SDS011;548;48.778;9.252;2022-12-29T10:00:02;10.50;;;10.00;;
1122;SDS011;548;48.778;9.252;2022-12-29T10:02:38;12.70;;;11.40;;
1122;SDS011;548;48.778;9.252;2022-12-29T10:07:58;11.40;;;10.80;;
1122;SDS011;548;48.778;9.252;2022-12-29T10:10:37;11.67;;;11.20;;
1122;SDS011;548;48.778;9.252;2022-12-29T10:13:10;10.60;;;10.10;;
1122;SDS011;548;48.778;9.252;2022-12-29T10:15:51;10.63;;;10.23;;
1122;SDS011;548;48.778;9.252;2022-12-29T10:18:32;11.60;;;11.20;;
1122;SDS011;548;48.778;9.252;2022-12-29T10:21:24;13.30;;;11.03;;
1122;SDS011;548;48.778;9.252;2022-12-29T10:23:54;10.50;;;10.00;;
1122;SDS011;548;48.778;9.252;2022-12-29T10:26:23;11.20;;;10.70;;
1122;SDS011;548;48.778;9.252;2022-12-29T10:28:54;10.87;;;10.37;;
1122;SDS011;548;48.778;9.252;2022-12-29T10:31:25;11.60;;;11.10;;
1122;SDS011;548;48.778;9.252;2022-12-29T10:34:00;10.60;;;10.30;;
1122;SDS011;548;48.778;9.252;2022-12-29T10:36:33;11.07;;;10.50;;
1122;SDS011;548;48.778;9.252;2022-12-29T10:39:05;10.47;;;10.07;;
1122;SDS011;548;48.778;9.252;2022-12-29T10:41:39;11.20;;;10.70;;
1122;SDS011;548;48.778;9.252;2022-12-29T10:44:13;11.93;;;11.53;;
1122;SDS011;548;48.778;9.252;2022-12-29T10:46:43;11.47;;;11.07;;
1122;SDS011;548;48.778;9.252;2022-12-29T10:49:16;13.40;;;12.40;;
1122;SDS011;548;48.778;9.252;2022-12-29T10:51:45;12.60;;;12.10;;
1122;SDS011;548;48.778;9.252;2022-12-29T10:54:18;11.73;;;11.13;;
1122;SDS011;548;48.778;9.252;2022-12-29T10:56:49;12.57;;;11.97;;
1122;SDS011;548;48.778;9.252;2022-12-29T10:59:19;13.60;;;12.70;;
1122;SDS011;548;48.778;9.252;2022-12-29T11:01:50;13.03;;;12.33;;
1122;SDS011;548;48.778;9.252;2022-12-29T11:04:28;12.27;;;11.53;;
1122;SDS011;548;48.778;9.252;2022-12-29T11:07:01;11.93;;;11.43;;
1122;SDS011;548;48.778;9.252;2022-12-29T11:09:29;12.27;;;11.77;;
1122;SDS011;548;48.778;9.252;2022-12-29T11:11:59;12.13;;;11.73;;
1122;SDS011;548;48.778;9.252;2022-12-29T11:14:27;11.70;;;11.30;;
1122;SDS011;548;48.778;9.252;2022-12-29T11:16:58;12.37;;;11.77;;
1122;SDS011;548;48.778;9.252;2022-12-29T11:19:28;12.40;;;11.80;;
1122;SDS011;548;48.778;9.252;2022-12-29T11:22:01;12.03;;;11.53;;
1122;SDS011;548;48.778;9.252;2022-12-29T11:24:43;10.90;;;10.43;;
1122;SDS011;548;48.778;9.252;2022-12-29T11:27:13;10.17;;;9.77;;
1122;SDS011;548;48.778;9.252;2022-12-29T11:29:42;10.77;;;10.37;;
1122;SDS011;548;48.778;9.252;2022-12-29T11:32:11;11.17;;;10.70;;
1122;SDS011;548;48.778;9.252;2022-12-29T11:34:40;11.70;;;11.20;;
1122;SDS011;548;48.778;9.252;2022-12-29T11:37:09;10.90;;;10.40;;
1122;SDS011;548;48.778;9.252;2022-12-29T11:39:39;11.30;;;10.90;;
1122;SDS011;548;48.778;9.252;2022-12-29T11:42:12;10.60;;;10.10;;
1122;SDS011;548;48.778;9.252;2022-12-29T11:44:42;11.10;;;10.70;;
1122;SDS011;548;48.778;9.252;2022-12-29T11:47:13;10.90;;;10.40;;
1122;SDS011;548;48.778;9.252;2022-12-29T11:49:50;13.17;;;12.40;;
1122;SDS011;548;48.778;9.252;2022-12-29T11:52:20;11.90;;;11.40;;
1122;SDS011;548;48.778;9.252;2022-12-29T11:54:49;12.80;;;12.10;;
1122;SDS011;548;48.778;9.252;2022-12-29T11:57:17;13.83;;;12.93;;
1122;SDS011;548;48.778;9.252;2022-12-29T11:59:49;10.73;;;10.27;;
1122;SDS011;548;48.778;9.252;2022-12-29T12:05:13;11.07;;;10.67;;
1122;SDS011;548;48.778;9.252;2022-12-29T12:07:46;12.90;;;12.40;;
1122;SDS011;548;48.778;9.252;2022-12-29T12:10:26;13.87;;;13.17;;
1122;SDS011;548;48.778;9.252;2022-12-29T12:12:58;12.10;;;11.50;;
1122;SDS011;548;48.778;9.252;2022-12-29T12:15:30;12.13;;;11.50;;
1122;SDS011;548;48.778;9.252;2022-12-29T12:18:04;12.67;;;12.17;;
1122;SDS011;548;48.778;9.252;2022-12-29T12:20:41;11.80;;;11.20;;
1122;SDS011;548;48.778;9.252;2022-12-29T12:23:13;12.60;;;12.10;;
1122;SDS011;548;48.778;9.252;2022-12-29T12:25:47;11.23;;;10.77;;
1122;SDS011;548;48.778;9.252;2022-12-29T12:28:24;12.43;;;11.70;;
1122;SDS011;548;48.778;9.252;2022-12-29T12:30:58;11.30;;;10.90;;
1122;SDS011;548;48.778;9.252;2022-12-29T12:33:30;12.90;;;12.40;;
1122;SDS011;548;48.778;9.252;2022-12-29T12:36:06;13.30;;;12.80;;
1122;SDS011;548;48.778;9.252;2022-12-29T12:38:46;10.50;;;10.00;;
1122;SDS011;548;48.778;9.252;2022-12-29T12:41:20;11.10;;;10.70;;
1122;SDS011;548;48.778;9.252;2022-12-29T12:43:57;11.93;;;11.43;;
1122;SDS011;548;48.778;9.252;2022-12-29T12:46:39;11.40;;;11.00;;
1122;SDS011;548;48.778;9.252;2022-12-29T12:52:12;12.20;;;11.70;;
1122;SDS011;548;48.778;9.252;2022-12-29T12:54:53;12.33;;;11.83;;
1122;SDS011;548;48.778;9.252;2022-12-29T12:57:34;13.17;;;12.67;;
1122;SDS011;548;48.778;9.252;2022-12-29T13:00:12;11.83;;;11.17;;
1122;SDS011;548;48.778;9.252;2022-12-29T13:02:45;11.90;;;11.40;;
1122;SDS011;548;48.778;9.252;2022-12-29T13:05:24;13.20;;;12.43;;
1122;SDS011;548;48.778;9.252;2022-12-29T13:08:10;12.80;;;12.13;;
1122;SDS011;548;48.778;9.252;2022-12-29T13:10:58;13.53;;;12.80;;
1122;SDS011;548;48.778;9.252;2022-12-29T13:13:38;13.07;;;12.23;;
1122;SDS011;548;48.778;9.252;2022-12-29T13:16:16;12.63;;;12.13;;
1122;SDS011;548;48.778;9.252;2022-12-29T13:18:52;10.93;;;10.43;;
1122;SDS011;548;48.778;9.252;2022-12-29T13:21:28;13.17;;;12.60;;
1122;SDS011;548;48.778;9.252;2022-12-29T13:24:09;12.60;;;12.10;;
1122;SDS011;548;48.778;9.252;2022-12-29T13:26:42;12.80;;;12.10;;
1122;SDS011;548;48.778;9.252;2022-12-29T13:29:15;12.23;;;11.73;;
1122;SDS011;548;48.778;9.252;2022-12-29T13:31:48;11.70;;;11.30;;
1122;SDS011;548;48.778;9.252;2022-12-29T13:34:25;12.33;;;11.77;;
1122;SDS011;548;48.778;9.252;2022-12-29T13:37:03;12.73;;;12.23;;
1122;SDS011;548;48.778;9.252;2022-12-29T13:39:36;12.40;;;11.90;;
1122;SDS011;548;48.778;9.252;2022-12-29T13:42:05;12.33;;;11.57;;
1122;SDS011;548;48.778;9.252;2022-12-29T13:44:34;11.33;;;10.83;;
1122;SDS011;548;48.778;9.252;2022-12-29T13:47:04;11.93;;;11.43;;
1122;SDS011;548;48.778;9.252;2022-12-29T13:49:40;11.80;;;11.30;;
1122;SDS011;548;48.778;9.252;2022-12-29T13:52:10;11.40;;;11.00;;
1122;SDS011;548;48.778;9.252;2022-12-29T13:54:45;12.30;;;11.90;;
1122;SDS011;548;48.778;9.252;2022-12-29T13:57:37;12.67;;;12.17;;
1122;SDS011;548;48.778;9.252;2022-12-29T14:00:11;11.87;;;11.40;;
1122;SDS011;548;48.778;9.252;2022-12-29T14:02:45;11.70;;;11.20;;
1122;SDS011;548;48.778;9.252;2022-12-29T14:05:27;11.57;;;11.17;;
1122;SDS011;548;48.778;9.252;2022-12-29T14:07:57;12.60;;;12.10;;
1122;SDS011;548;48.778;9.252;2022-12-29T14:10:30;11.50;;;11.10;;
1122;SDS011;548;48.778;9.252;2022-12-29T14:13:02;12.33;;;11.77;;
1122;SDS011;548;48.778;9.252;2022-12-29T14:15:31;11.60;;;11.20;;
1122;SDS011;548;48.778;9.252;2022-12-29T14:20:49;11.53;;;10.63;;
1122;SDS011;548;48.778;9.252;2022-12-29T14:26:13;11.57;;;11.07;;
1122;SDS011;548;48.778;9.252;2022-12-29T14:28:43;12.00;;;11.40;;
1122;SDS011;548;48.778;9.252;2022-12-29T14:37:03;11.63;;;11.03;;
1122;SDS011;548;48.778;9.252;2022-12-29T14:39:34;12.10;;;11.50;;
1122;SDS011;548;48.778;9.252;2022-12-29T14:42:05;12.20;;;11.70;;
1122;SDS011;548;48.778;9.252;2022-12-29T14:44:45;12.57;;;12.07;;
1122;SDS011;548;48.778;9.252;2022-12-29T14:47:14;12.63;;;11.93;;
1122;SDS011;548;48.778;9.252;2022-12-29T14:49:45;10.03;;;9.63;;
1122;SDS011;548;48.778;9.252;2022-12-29T14:52:13;11.73;;;11.27;;
1122;SDS011;548;48.778;9.252;2022-12-29T14:54:45;12.13;;;11.63;;
1122;SDS011;548;48.778;9.252;2022-12-29T15:00:06;13.13;;;12.60;;
1122;SDS011;548;48.778;9.252;2022-12-29T15:02:41;11.93;;;11.53;;
1122;SDS011;548;48.778;9.252;2022-12-29T15:05:20;13.10;;;12.30;;
1122;SDS011;548;48.778;9.252;2022-12-29T15:07:53;11.30;;;10.80;;
1122;SDS011;548;48.778;9.252;2022-12-29T15:10:21;13.60;;;13.10;;
1122;SDS011;548;48.778;9.252;2022-12-29T15:12:53;11.30;;;10.90;;
1122;SDS011;548;48.778;9.252;2022-12-29T15:15:21;11.77;;;11.27;;
1122;SDS011;548;48.778;9.252;2022-12-29T15:17:49;13.63;;;12.73;;
1122;SDS011;548;48.778;9.252;2022-12-29T15:20:26;12.40;;;11.90;;
1122;SDS011;548;48.778;9.252;2022-12-29T15:22:54;12.60;;;12.10;;
1122;SDS011;548;48.778;9.252;2022-12-29T15:25:23;13.00;;;12.40;;
1122;SDS011;548;48.778;9.252;2022-12-29T15:27:53;11.10;;;10.70;;
1122;SDS011;548;48.778;9.252;2022-12-29T15:30:22;11.60;;;10.90;;
1122;SDS011;548;48.778;9.252;2022-12-29T15:32:49;11.80;;;11.30;;
1122;SDS011;548;48.778;9.252;2022-12-29T15:35:28;11.43;;;10.93;;
1122;SDS011;548;48.778;9.252;2022-12-29T15:37:57;12.97;;;12.07;;
1122;SDS011;548;48.778;9.252;2022-12-29T15:40:26;11.17;;;10.60;;
1122;SDS011;548;48.778;9.252;2022-12-29T15:43:02;10.53;;;10.13;;
1122;SDS011;548;48.778;9.252;2022-12-29T15:45:41;12.83;;;12.07;;
1122;SDS011;548;48.778;9.252;2022-12-29T15:48:10;11.87;;;11.27;;
1122;SDS011;548;48.778;9.252;2022-12-29T15:50:42;11.80;;;11.17;;